首页
METAR-TAF:

METAR-TAF

机场 :

Fairfield Municipal Airport

費爾菲爾德, 伊利诺伊州, 美国

纬度: 38-22-43N, 经度: 088-24-46W, 海拔: 133米

当前天气观测

该预报发布于19分钟前的11:55 UTC
静风
温度 -3°C
湿度 74%
气压 1023 hPa
能見度: 16.1公里
天空无云

METAR: KFWC 271155Z AUTO 00000KT 10SM CLR M03/M07 A3020 RMK AO1 70006 T10311068 11008 21032

时间: 06:14 (12:14 UTC)


TAF: 丢失

超过4000个机场的气象观测和天气预报(METAR&TAF报告)。

可查询的气象台以黄色和红色小点在地图上表示。

将鼠标移到小点上方,可查看气象台名称。

然后点击查看天气观测和预报。

如需切换地图:点击带黑十字的绿色按钮放大地图;点击带横线的绿色按钮缩小地图;或者点击绿色箭头查看邻近地区的地图。


METAR-TAF: